sensor_id;sensor_type;location;lat;lon;timestamp;P1;durP1;ratioP1;P2;durP2;ratioP2
67372;SDS011;54257;54.496;18.412;2022-12-18T00:01:32;40.70;;;19.20;;
67372;SDS011;54257;54.496;18.412;2022-12-18T00:04:01;58.30;;;26.20;;
67372;SDS011;54257;54.496;18.412;2022-12-18T00:06:41;42.90;;;20.80;;
67372;SDS011;54257;54.496;18.412;2022-12-18T00:09:08;47.70;;;22.30;;
67372;SDS011;54257;54.496;18.412;2022-12-18T00:11:36;40.50;;;19.90;;
67372;SDS011;54257;54.496;18.412;2022-12-18T00:14:03;37.80;;;19.70;;
67372;SDS011;54257;54.496;18.412;2022-12-18T00:16:30;52.50;;;26.30;;
67372;SDS011;54257;54.496;18.412;2022-12-18T00:18:59;41.60;;;21.70;;
67372;SDS011;54257;54.496;18.412;2022-12-18T00:21:28;41.80;;;23.50;;
67372;SDS011;54257;54.496;18.412;2022-12-18T00:23:56;32.70;;;16.50;;
67372;SDS011;54257;54.496;18.412;2022-12-18T00:26:28;42.40;;;17.30;;
67372;SDS011;54257;54.496;18.412;2022-12-18T00:29:01;36.80;;;18.10;;
67372;SDS011;54257;54.496;18.412;2022-12-18T00:31:36;30.60;;;17.00;;
67372;SDS011;54257;54.496;18.412;2022-12-18T00:34:09;31.90;;;16.50;;
67372;SDS011;54257;54.496;18.412;2022-12-18T00:36:38;44.20;;;19.70;;
67372;SDS011;54257;54.496;18.412;2022-12-18T00:39:06;41.20;;;18.60;;
67372;SDS011;54257;54.496;18.412;2022-12-18T00:41:33;38.80;;;18.90;;
67372;SDS011;54257;54.496;18.412;2022-12-18T00:44:19;40.80;;;17.40;;
67372;SDS011;54257;54.496;18.412;2022-12-18T00:46:47;34.70;;;16.40;;
67372;SDS011;54257;54.496;18.412;2022-12-18T00:49:16;41.80;;;20.50;;
67372;SDS011;54257;54.496;18.412;2022-12-18T00:51:44;42.90;;;21.00;;
67372;SDS011;54257;54.496;18.412;2022-12-18T00:54:12;48.40;;;20.80;;
67372;SDS011;54257;54.496;18.412;2022-12-18T00:56:39;36.80;;;17.90;;
67372;SDS011;54257;54.496;18.412;2022-12-18T00:59:07;34.80;;;18.30;;
67372;SDS011;54257;54.496;18.412;2022-12-18T01:01:34;34.40;;;16.90;;
67372;SDS011;54257;54.496;18.412;2022-12-18T01:04:02;40.20;;;20.00;;
67372;SDS011;54257;54.496;18.412;2022-12-18T01:06:29;33.80;;;17.40;;
67372;SDS011;54257;54.496;18.412;2022-12-18T01:08:57;32.80;;;17.20;;
67372;SDS011;54257;54.496;18.412;2022-12-18T01:11:24;39.30;;;18.10;;
67372;SDS011;54257;54.496;18.412;2022-12-18T01:13:52;34.00;;;18.80;;
67372;SDS011;54257;54.496;18.412;2022-12-18T01:16:20;36.20;;;17.50;;
67372;SDS011;54257;54.496;18.412;2022-12-18T01:18:51;39.60;;;18.10;;
67372;SDS011;54257;54.496;18.412;2022-12-18T01:21:20;36.00;;;17.70;;
67372;SDS011;54257;54.496;18.412;2022-12-18T01:23:53;34.90;;;18.20;;
67372;SDS011;54257;54.496;18.412;2022-12-18T01:26:22;40.60;;;20.60;;
67372;SDS011;54257;54.496;18.412;2022-12-18T01:28:50;33.80;;;17.20;;
67372;SDS011;54257;54.496;18.412;2022-12-18T01:31:21;30.50;;;14.90;;
67372;SDS011;54257;54.496;18.412;2022-12-18T01:33:57;33.60;;;15.90;;
67372;SDS011;54257;54.496;18.412;2022-12-18T01:36:29;31.10;;;16.90;;
67372;SDS011;54257;54.496;18.412;2022-12-18T01:39:02;35.80;;;17.70;;
67372;SDS011;54257;54.496;18.412;2022-12-18T01:41:32;35.70;;;17.00;;
67372;SDS011;54257;54.496;18.412;2022-12-18T01:49:47;35.30;;;17.50;;
67372;SDS011;54257;54.496;18.412;2022-12-18T01:52:14;43.10;;;20.50;;
67372;SDS011;54257;54.496;18.412;2022-12-18T01:54:43;34.70;;;16.60;;
67372;SDS011;54257;54.496;18.412;2022-12-18T01:57:12;35.60;;;17.20;;
67372;SDS011;54257;54.496;18.412;2022-12-18T01:59:39;31.00;;;15.90;;
67372;SDS011;54257;54.496;18.412;2022-12-18T02:02:07;31.10;;;16.30;;
67372;SDS011;54257;54.496;18.412;2022-12-18T02:04:35;31.50;;;16.20;;
67372;SDS011;54257;54.496;18.412;2022-12-18T02:07:07;33.60;;;15.70;;
67372;SDS011;54257;54.496;18.412;2022-12-18T02:09:41;32.40;;;16.30;;
67372;SDS011;54257;54.496;18.412;2022-12-18T02:18:10;30.10;;;16.30;;
67372;SDS011;54257;54.496;18.412;2022-12-18T02:20:44;29.40;;;15.50;;
67372;SDS011;54257;54.496;18.412;2022-12-18T02:28:47;30.60;;;16.40;;
67372;SDS011;54257;54.496;18.412;2022-12-18T02:31:27;31.60;;;15.50;;
67372;SDS011;54257;54.496;18.412;2022-12-18T02:33:58;30.70;;;15.70;;
67372;SDS011;54257;54.496;18.412;2022-12-18T02:36:29;28.80;;;15.60;;
67372;SDS011;54257;54.496;18.412;2022-12-18T02:38:59;33.50;;;14.80;;
67372;SDS011;54257;54.496;18.412;2022-12-18T02:41:28;30.20;;;14.60;;
67372;SDS011;54257;54.496;18.412;2022-12-18T02:44:07;27.20;;;13.90;;
67372;SDS011;54257;54.496;18.412;2022-12-18T02:46:44;28.70;;;14.80;;
67372;SDS011;54257;54.496;18.412;2022-12-18T02:49:26;28.80;;;14.60;;
67372;SDS011;54257;54.496;18.412;2022-12-18T02:52:13;25.40;;;14.10;;
67372;SDS011;54257;54.496;18.412;2022-12-18T02:57:37;27.70;;;14.70;;
67372;SDS011;54257;54.496;18.412;2022-12-18T03:00:17;26.00;;;14.20;;
67372;SDS011;54257;54.496;18.412;2022-12-18T03:02:54;27.60;;;14.90;;
67372;SDS011;54257;54.496;18.412;2022-12-18T03:05:55;24.70;;;13.40;;
67372;SDS011;54257;54.496;18.412;2022-12-18T03:08:31;28.70;;;12.90;;
67372;SDS011;54257;54.496;18.412;2022-12-18T03:11:05;25.40;;;12.40;;
67372;SDS011;54257;54.496;18.412;2022-12-18T03:16:15;24.60;;;12.20;;
67372;SDS011;54257;54.496;18.412;2022-12-18T03:18:51;24.70;;;11.60;;
67372;SDS011;54257;54.496;18.412;2022-12-18T03:21:26;24.10;;;11.60;;
67372;SDS011;54257;54.496;18.412;2022-12-18T03:23:57;25.40;;;11.80;;
67372;SDS011;54257;54.496;18.412;2022-12-18T03:26:25;22.50;;;12.50;;
67372;SDS011;54257;54.496;18.412;2022-12-18T03:28:56;22.50;;;10.70;;
67372;SDS011;54257;54.496;18.412;2022-12-18T03:31:28;20.90;;;11.20;;
67372;SDS011;54257;54.496;18.412;2022-12-18T03:34:04;26.40;;;11.50;;
67372;SDS011;54257;54.496;18.412;2022-12-18T03:36:36;22.00;;;10.90;;
67372;SDS011;54257;54.496;18.412;2022-12-18T03:39:03;23.70;;;10.00;;
67372;SDS011;54257;54.496;18.412;2022-12-18T03:41:35;23.40;;;12.10;;
67372;SDS011;54257;54.496;18.412;2022-12-18T03:44:14;22.70;;;10.40;;
67372;SDS011;54257;54.496;18.412;2022-12-18T03:47:10;20.60;;;10.80;;
67372;SDS011;54257;54.496;18.412;2022-12-18T03:49:47;25.50;;;10.40;;
67372;SDS011;54257;54.496;18.412;2022-12-18T03:52:26;20.00;;;10.30;;
67372;SDS011;54257;54.496;18.412;2022-12-18T03:54:58;20.80;;;9.60;;
67372;SDS011;54257;54.496;18.412;2022-12-18T03:57:28;19.90;;;11.30;;
67372;SDS011;54257;54.496;18.412;2022-12-18T04:00:03;20.40;;;10.70;;
67372;SDS011;54257;54.496;18.412;2022-12-18T04:03:19;18.00;;;9.30;;
67372;SDS011;54257;54.496;18.412;2022-12-18T04:05:49;20.40;;;9.60;;
67372;SDS011;54257;54.496;18.412;2022-12-18T04:08:21;20.30;;;9.90;;
67372;SDS011;54257;54.496;18.412;2022-12-18T04:10:50;18.70;;;9.90;;
67372;SDS011;54257;54.496;18.412;2022-12-18T04:13:21;22.20;;;10.10;;
67372;SDS011;54257;54.496;18.412;2022-12-18T04:15:54;21.20;;;9.20;;
67372;SDS011;54257;54.496;18.412;2022-12-18T04:18:21;17.30;;;10.10;;
67372;SDS011;54257;54.496;18.412;2022-12-18T04:20:48;20.10;;;9.50;;
67372;SDS011;54257;54.496;18.412;2022-12-18T04:23:15;22.00;;;10.60;;
67372;SDS011;54257;54.496;18.412;2022-12-18T04:25:43;19.00;;;9.50;;
67372;SDS011;54257;54.496;18.412;2022-12-18T04:28:10;19.90;;;10.80;;
67372;SDS011;54257;54.496;18.412;2022-12-18T04:30:37;18.70;;;9.20;;
67372;SDS011;54257;54.496;18.412;2022-12-18T04:33:08;18.40;;;9.10;;
67372;SDS011;54257;54.496;18.412;2022-12-18T04:35:37;19.20;;;9.00;;
67372;SDS011;54257;54.496;18.412;2022-12-18T04:38:06;15.50;;;8.40;;
67372;SDS011;54257;54.496;18.412;2022-12-18T04:40:35;15.90;;;8.80;;
67372;SDS011;54257;54.496;18.412;2022-12-18T04:43:03;17.20;;;9.30;;
67372;SDS011;54257;54.496;18.412;2022-12-18T04:45:31;21.20;;;8.70;;
67372;SDS011;54257;54.496;18.412;2022-12-18T04:47:59;14.70;;;8.80;;
67372;SDS011;54257;54.496;18.412;2022-12-18T04:50:28;15.40;;;7.80;;
67372;SDS011;54257;54.496;18.412;2022-12-18T04:52:56;15.20;;;8.10;;
67372;SDS011;54257;54.496;18.412;2022-12-18T04:55:27;14.00;;;7.50;;
67372;SDS011;54257;54.496;18.412;2022-12-18T04:57:54;14.50;;;7.60;;
67372;SDS011;54257;54.496;18.412;2022-12-18T05:00:21;13.80;;;7.80;;
67372;SDS011;54257;54.496;18.412;2022-12-18T05:02:49;13.00;;;7.50;;
67372;SDS011;54257;54.496;18.412;2022-12-18T05:05:16;14.80;;;7.70;;
67372;SDS011;54257;54.496;18.412;2022-12-18T05:07:43;15.60;;;7.40;;
67372;SDS011;54257;54.496;18.412;2022-12-18T05:10:10;13.50;;;6.80;;
67372;SDS011;54257;54.496;18.412;2022-12-18T05:12:37;14.60;;;7.00;;
67372;SDS011;54257;54.496;18.412;2022-12-18T05:15:26;11.70;;;7.10;;
67372;SDS011;54257;54.496;18.412;2022-12-18T05:17:54;12.10;;;6.90;;
67372;SDS011;54257;54.496;18.412;2022-12-18T05:20:22;16.00;;;6.90;;
67372;SDS011;54257;54.496;18.412;2022-12-18T05:22:50;13.30;;;7.40;;
67372;SDS011;54257;54.496;18.412;2022-12-18T05:25:18;13.10;;;6.30;;
67372;SDS011;54257;54.496;18.412;2022-12-18T05:27:46;15.50;;;7.50;;
67372;SDS011;54257;54.496;18.412;2022-12-18T05:30:14;12.60;;;7.30;;
67372;SDS011;54257;54.496;18.412;2022-12-18T05:32:42;13.90;;;7.40;;
67372;SDS011;54257;54.496;18.412;2022-12-18T05:35:09;12.00;;;7.60;;
67372;SDS011;54257;54.496;18.412;2022-12-18T05:37:38;17.50;;;8.30;;
67372;SDS011;54257;54.496;18.412;2022-12-18T05:40:05;13.60;;;7.10;;
67372;SDS011;54257;54.496;18.412;2022-12-18T05:42:32;11.50;;;7.40;;
67372;SDS011;54257;54.496;18.412;2022-12-18T05:44:59;12.40;;;7.80;;
67372;SDS011;54257;54.496;18.412;2022-12-18T05:47:27;15.20;;;8.00;;
67372;SDS011;54257;54.496;18.412;2022-12-18T05:49:55;13.40;;;7.10;;
67372;SDS011;54257;54.496;18.412;2022-12-18T05:52:22;13.90;;;7.70;;
67372;SDS011;54257;54.496;18.412;2022-12-18T05:54:49;14.20;;;7.90;;
67372;SDS011;54257;54.496;18.412;2022-12-18T05:57:16;12.60;;;8.00;;
67372;SDS011;54257;54.496;18.412;2022-12-18T05:59:44;13.10;;;6.50;;
67372;SDS011;54257;54.496;18.412;2022-12-18T06:02:11;12.20;;;6.60;;
67372;SDS011;54257;54.496;18.412;2022-12-18T06:04:38;13.60;;;7.70;;
67372;SDS011;54257;54.496;18.412;2022-12-18T06:07:05;13.90;;;7.40;;
67372;SDS011;54257;54.496;18.412;2022-12-18T06:09:32;12.50;;;6.70;;
67372;SDS011;54257;54.496;18.412;2022-12-18T06:11:59;14.80;;;7.80;;
67372;SDS011;54257;54.496;18.412;2022-12-18T06:14:26;14.40;;;7.70;;
67372;SDS011;54257;54.496;18.412;2022-12-18T06:16:53;11.50;;;8.00;;
67372;SDS011;54257;54.496;18.412;2022-12-18T06:19:20;18.00;;;8.10;;
67372;SDS011;54257;54.496;18.412;2022-12-18T06:21:48;15.30;;;8.20;;
67372;SDS011;54257;54.496;18.412;2022-12-18T06:24:16;12.80;;;6.90;;
67372;SDS011;54257;54.496;18.412;2022-12-18T06:26:44;15.40;;;8.50;;
67372;SDS011;54257;54.496;18.412;2022-12-18T06:29:11;18.80;;;10.10;;
67372;SDS011;54257;54.496;18.412;2022-12-18T06:31:38;16.10;;;9.40;;
67372;SDS011;54257;54.496;18.412;2022-12-18T06:34:05;17.90;;;10.70;;
67372;SDS011;54257;54.496;18.412;2022-12-18T06:36:32;17.30;;;9.10;;
67372;SDS011;54257;54.496;18.412;2022-12-18T06:39:00;18.10;;;8.70;;
67372;SDS011;54257;54.496;18.412;2022-12-18T06:41:27;14.50;;;8.10;;
67372;SDS011;54257;54.496;18.412;2022-12-18T06:43:55;15.50;;;7.40;;
67372;SDS011;54257;54.496;18.412;2022-12-18T06:46:22;15.10;;;9.50;;
67372;SDS011;54257;54.496;18.412;2022-12-18T06:48:49;12.70;;;7.90;;
67372;SDS011;54257;54.496;18.412;2022-12-18T06:51:18;13.70;;;8.10;;
67372;SDS011;54257;54.496;18.412;2022-12-18T06:53:46;15.90;;;10.00;;
67372;SDS011;54257;54.496;18.412;2022-12-18T06:56:13;19.50;;;11.00;;
67372;SDS011;54257;54.496;18.412;2022-12-18T06:58:41;18.80;;;10.20;;
67372;SDS011;54257;54.496;18.412;2022-12-18T07:01:10;16.80;;;10.70;;
67372;SDS011;54257;54.496;18.412;2022-12-18T07:03:39;17.10;;;10.20;;
67372;SDS011;54257;54.496;18.412;2022-12-18T07:06:15;18.60;;;10.70;;
67372;SDS011;54257;54.496;18.412;2022-12-18T07:08:44;20.60;;;12.70;;
67372;SDS011;54257;54.496;18.412;2022-12-18T07:11:12;22.00;;;12.40;;
67372;SDS011;54257;54.496;18.412;2022-12-18T07:13:40;20.70;;;12.50;;
67372;SDS011;54257;54.496;18.412;2022-12-18T07:16:12;24.00;;;12.60;;
67372;SDS011;54257;54.496;18.412;2022-12-18T07:18:43;20.20;;;13.00;;
67372;SDS011;54257;54.496;18.412;2022-12-18T07:21:12;23.00;;;13.30;;
67372;SDS011;54257;54.496;18.412;2022-12-18T07:23:42;20.10;;;12.10;;
67372;SDS011;54257;54.496;18.412;2022-12-18T07:26:10;19.60;;;11.90;;
67372;SDS011;54257;54.496;18.412;2022-12-18T07:28:39;21.70;;;13.10;;
67372;SDS011;54257;54.496;18.412;2022-12-18T07:31:11;22.80;;;14.00;;
67372;SDS011;54257;54.496;18.412;2022-12-18T07:33:41;28.00;;;15.70;;
67372;SDS011;54257;54.496;18.412;2022-12-18T07:36:08;28.10;;;17.00;;
67372;SDS011;54257;54.496;18.412;2022-12-18T07:38:36;25.10;;;14.90;;
67372;SDS011;54257;54.496;18.412;2022-12-18T07:41:05;21.00;;;13.60;;
67372;SDS011;54257;54.496;18.412;2022-12-18T07:43:34;20.60;;;13.30;;
67372;SDS011;54257;54.496;18.412;2022-12-18T07:46:02;28.00;;;14.50;;
67372;SDS011;54257;54.496;18.412;2022-12-18T07:48:29;22.50;;;13.20;;
67372;SDS011;54257;54.496;18.412;2022-12-18T07:51:04;23.10;;;11.10;;
67372;SDS011;54257;54.496;18.412;2022-12-18T07:53:33;19.00;;;11.00;;
67372;SDS011;54257;54.496;18.412;2022-12-18T07:56:03;20.50;;;10.90;;
67372;SDS011;54257;54.496;18.412;2022-12-18T07:58:34;17.80;;;11.40;;
67372;SDS011;54257;54.496;18.412;2022-12-18T08:01:10;18.80;;;11.70;;
67372;SDS011;54257;54.496;18.412;2022-12-18T08:03:38;20.40;;;12.80;;
67372;SDS011;54257;54.496;18.412;2022-12-18T08:06:08;19.50;;;11.70;;
67372;SDS011;54257;54.496;18.412;2022-12-18T08:08:36;18.50;;;11.10;;
67372;SDS011;54257;54.496;18.412;2022-12-18T08:11:04;22.90;;;13.30;;
67372;SDS011;54257;54.496;18.412;2022-12-18T08:13:31;22.00;;;15.70;;
67372;SDS011;54257;54.496;18.412;2022-12-18T08:16:02;20.00;;;14.40;;
67372;SDS011;54257;54.496;18.412;2022-12-18T08:18:32;19.50;;;14.50;;
67372;SDS011;54257;54.496;18.412;2022-12-18T08:21:10;24.40;;;14.70;;
67372;SDS011;54257;54.496;18.412;2022-12-18T08:23:51;24.40;;;15.10;;
67372;SDS011;54257;54.496;18.412;2022-12-18T08:26:21;18.00;;;11.40;;
67372;SDS011;54257;54.496;18.412;2022-12-18T08:28:49;19.00;;;11.40;;
67372;SDS011;54257;54.496;18.412;2022-12-18T08:31:17;18.20;;;10.70;;
67372;SDS011;54257;54.496;18.412;2022-12-18T08:33:49;19.60;;;12.20;;
67372;SDS011;54257;54.496;18.412;2022-12-18T08:36:17;23.40;;;12.90;;
67372;SDS011;54257;54.496;18.412;2022-12-18T08:38:44;21.30;;;13.20;;
67372;SDS011;54257;54.496;18.412;2022-12-18T08:41:12;18.00;;;10.70;;
67372;SDS011;54257;54.496;18.412;2022-12-18T08:43:43;18.50;;;11.50;;
67372;SDS011;54257;54.496;18.412;2022-12-18T08:46:37;18.30;;;10.50;;
67372;SDS011;54257;54.496;18.412;2022-12-18T08:49:07;22.70;;;12.90;;
67372;SDS011;54257;54.496;18.412;2022-12-18T08:51:35;21.60;;;12.30;;
67372;SDS011;54257;54.496;18.412;2022-12-18T08:54:02;24.10;;;14.70;;
67372;SDS011;54257;54.496;18.412;2022-12-18T08:56:30;20.80;;;13.00;;
67372;SDS011;54257;54.496;18.412;2022-12-18T08:58:57;19.90;;;12.80;;
67372;SDS011;54257;54.496;18.412;2022-12-18T09:01:24;21.60;;;12.40;;
67372;SDS011;54257;54.496;18.412;2022-12-18T09:03:54;19.40;;;12.70;;
67372;SDS011;54257;54.496;18.412;2022-12-18T09:06:32;17.90;;;11.20;;
67372;SDS011;54257;54.496;18.412;2022-12-18T09:08:59;17.80;;;11.20;;
67372;SDS011;54257;54.496;18.412;2022-12-18T09:11:27;17.40;;;11.10;;
67372;SDS011;54257;54.496;18.412;2022-12-18T09:13:55;20.10;;;10.70;;
67372;SDS011;54257;54.496;18.412;2022-12-18T09:16:23;20.20;;;11.20;;
67372;SDS011;54257;54.496;18.412;2022-12-18T09:18:52;22.00;;;12.40;;
67372;SDS011;54257;54.496;18.412;2022-12-18T09:21:26;18.50;;;11.90;;
67372;SDS011;54257;54.496;18.412;2022-12-18T09:23:56;20.90;;;12.70;;
67372;SDS011;54257;54.496;18.412;2022-12-18T09:26:24;20.90;;;12.10;;
67372;SDS011;54257;54.496;18.412;2022-12-18T09:28:52;21.20;;;12.30;;
67372;SDS011;54257;54.496;18.412;2022-12-18T09:31:20;21.80;;;13.10;;
67372;SDS011;54257;54.496;18.412;2022-12-18T09:33:50;21.20;;;13.00;;
67372;SDS011;54257;54.496;18.412;2022-12-18T09:36:18;26.40;;;12.80;;
67372;SDS011;54257;54.496;18.412;2022-12-18T09:38:46;23.10;;;13.30;;
67372;SDS011;54257;54.496;18.412;2022-12-18T09:44:10;21.60;;;12.50;;
67372;SDS011;54257;54.496;18.412;2022-12-18T09:51:59;19.50;;;11.30;;
67372;SDS011;54257;54.496;18.412;2022-12-18T09:54:35;18.60;;;12.30;;
67372;SDS011;54257;54.496;18.412;2022-12-18T09:57:06;23.00;;;12.10;;
67372;SDS011;54257;54.496;18.412;2022-12-18T09:59:37;26.40;;;14.80;;
67372;SDS011;54257;54.496;18.412;2022-12-18T10:05:06;27.30;;;14.80;;
67372;SDS011;54257;54.496;18.412;2022-12-18T10:07:44;26.70;;;16.20;;
67372;SDS011;54257;54.496;18.412;2022-12-18T10:13:52;22.30;;;12.20;;
67372;SDS011;54257;54.496;18.412;2022-12-18T10:19:25;22.40;;;12.80;;
67372;SDS011;54257;54.496;18.412;2022-12-18T10:24:26;24.30;;;13.60;;
67372;SDS011;54257;54.496;18.412;2022-12-18T10:27:11;22.00;;;14.30;;
67372;SDS011;54257;54.496;18.412;2022-12-18T10:29:44;26.50;;;15.70;;
67372;SDS011;54257;54.496;18.412;2022-12-18T10:32:16;21.80;;;14.20;;
67372;SDS011;54257;54.496;18.412;2022-12-18T10:34:46;24.10;;;13.50;;
67372;SDS011;54257;54.496;18.412;2022-12-18T10:37:19;23.30;;;13.40;;
67372;SDS011;54257;54.496;18.412;2022-12-18T10:40:31;25.60;;;14.60;;
67372;SDS011;54257;54.496;18.412;2022-12-18T10:42:42;25.60;;;14.00;;
67372;SDS011;54257;54.496;18.412;2022-12-18T10:45:13;27.20;;;14.60;;
67372;SDS011;54257;54.496;18.412;2022-12-18T10:47:45;26.70;;;14.90;;
67372;SDS011;54257;54.496;18.412;2022-12-18T10:50:38;23.20;;;13.60;;
67372;SDS011;54257;54.496;18.412;2022-12-18T10:53:13;23.60;;;13.30;;
67372;SDS011;54257;54.496;18.412;2022-12-18T10:55:47;24.80;;;14.00;;
67372;SDS011;54257;54.496;18.412;2022-12-18T10:58:32;22.40;;;12.70;;
67372;SDS011;54257;54.496;18.412;2022-12-18T11:03:43;26.30;;;15.00;;
67372;SDS011;54257;54.496;18.412;2022-12-18T11:08:42;31.10;;;15.80;;
67372;SDS011;54257;54.496;18.412;2022-12-18T11:11:19;31.00;;;15.50;;
67372;SDS011;54257;54.496;18.412;2022-12-18T11:14:06;26.50;;;14.50;;
67372;SDS011;54257;54.496;18.412;2022-12-18T11:16:48;26.40;;;13.20;;
67372;SDS011;54257;54.496;18.412;2022-12-18T11:19:38;22.80;;;11.40;;
67372;SDS011;54257;54.496;18.412;2022-12-18T11:22:28;19.90;;;12.60;;
67372;SDS011;54257;54.496;18.412;2022-12-18T11:24:59;21.40;;;11.80;;
67372;SDS011;54257;54.496;18.412;2022-12-18T11:27:47;25.00;;;12.00;;
67372;SDS011;54257;54.496;18.412;2022-12-18T11:32:52;27.30;;;13.60;;
67372;SDS011;54257;54.496;18.412;2022-12-18T11:38:22;24.00;;;13.80;;
67372;SDS011;54257;54.496;18.412;2022-12-18T11:46:23;22.00;;;11.70;;
67372;SDS011;54257;54.496;18.412;2022-12-18T11:54:22;22.80;;;12.80;;
67372;SDS011;54257;54.496;18.412;2022-12-18T11:56:55;24.00;;;13.20;;
67372;SDS011;54257;54.496;18.412;2022-12-18T11:59:38;19.20;;;11.10;;
67372;SDS011;54257;54.496;18.412;2022-12-18T12:08:30;20.30;;;11.20;;
67372;SDS011;54257;54.496;18.412;2022-12-18T12:11:20;18.20;;;10.30;;
67372;SDS011;54257;54.496;18.412;2022-12-18T12:39:46;14.50;;;8.40;;
67372;SDS011;54257;54.496;18.412;2022-12-18T12:42:49;12.90;;;8.30;;
67372;SDS011;54257;54.496;18.412;2022-12-18T12:45:58;14.90;;;8.00;;
67372;SDS011;54257;54.496;18.412;2022-12-18T12:53:50;16.50;;;8.20;;
67372;SDS011;54257;54.496;18.412;2022-12-18T12:56:20;15.60;;;8.20;;
67372;SDS011;54257;54.496;18.412;2022-12-18T13:01:40;16.70;;;8.50;;
67372;SDS011;54257;54.496;18.412;2022-12-18T13:07:16;15.30;;;8.20;;
67372;SDS011;54257;54.496;18.412;2022-12-18T13:12:55;15.70;;;8.90;;
67372;SDS011;54257;54.496;18.412;2022-12-18T13:15:30;16.40;;;7.50;;
67372;SDS011;54257;54.496;18.412;2022-12-18T13:20:37;13.40;;;8.20;;
67372;SDS011;54257;54.496;18.412;2022-12-18T13:25:55;14.00;;;8.80;;
67372;SDS011;54257;54.496;18.412;2022-12-18T13:31:14;14.70;;;9.00;;
67372;SDS011;54257;54.496;18.412;2022-12-18T13:36:44;14.80;;;8.30;;
67372;SDS011;54257;54.496;18.412;2022-12-18T13:41:51;15.60;;;8.50;;
67372;SDS011;54257;54.496;18.412;2022-12-18T13:45:31;16.70;;;8.60;;
67372;SDS011;54257;54.496;18.412;2022-12-18T13:48:21;13.40;;;7.60;;
67372;SDS011;54257;54.496;18.412;2022-12-18T13:53:35;13.50;;;8.00;;
67372;SDS011;54257;54.496;18.412;2022-12-18T13:56:14;17.00;;;8.20;;
67372;SDS011;54257;54.496;18.412;2022-12-18T14:01:46;14.70;;;8.80;;
67372;SDS011;54257;54.496;18.412;2022-12-18T14:04:24;16.10;;;8.20;;
67372;SDS011;54257;54.496;18.412;2022-12-18T14:06:56;13.10;;;7.70;;
67372;SDS011;54257;54.496;18.412;2022-12-18T14:09:37;14.50;;;8.30;;
67372;SDS011;54257;54.496;18.412;2022-12-18T14:12:14;16.60;;;8.60;;
67372;SDS011;54257;54.496;18.412;2022-12-18T14:18:01;17.00;;;10.00;;
67372;SDS011;54257;54.496;18.412;2022-12-18T14:20:42;15.70;;;8.90;;
67372;SDS011;54257;54.496;18.412;2022-12-18T14:23:25;15.90;;;8.80;;
67372;SDS011;54257;54.496;18.412;2022-12-18T14:26:19;21.00;;;10.00;;
67372;SDS011;54257;54.496;18.412;2022-12-18T14:29:09;15.50;;;9.50;;
67372;SDS011;54257;54.496;18.412;2022-12-18T14:31:44;17.20;;;10.30;;
67372;SDS011;54257;54.496;18.412;2022-12-18T14:34:17;21.50;;;12.20;;
67372;SDS011;54257;54.496;18.412;2022-12-18T14:36:54;18.00;;;10.60;;
67372;SDS011;54257;54.496;18.412;2022-12-18T14:39:22;19.20;;;10.10;;
67372;SDS011;54257;54.496;18.412;2022-12-18T14:41:52;17.10;;;9.10;;
67372;SDS011;54257;54.496;18.412;2022-12-18T14:44:19;19.50;;;10.00;;
67372;SDS011;54257;54.496;18.412;2022-12-18T14:46:48;19.80;;;10.60;;
67372;SDS011;54257;54.496;18.412;2022-12-18T14:49:33;19.10;;;10.90;;
67372;SDS011;54257;54.496;18.412;2022-12-18T14:52:02;17.90;;;10.60;;
67372;SDS011;54257;54.496;18.412;2022-12-18T14:54:33;21.50;;;10.60;;
67372;SDS011;54257;54.496;18.412;2022-12-18T14:59:40;21.50;;;10.30;;
67372;SDS011;54257;54.496;18.412;2022-12-18T15:02:14;18.50;;;9.90;;
67372;SDS011;54257;54.496;18.412;2022-12-18T15:04:59;22.10;;;9.80;;
67372;SDS011;54257;54.496;18.412;2022-12-18T15:07:34;15.60;;;9.50;;
67372;SDS011;54257;54.496;18.412;2022-12-18T15:10:26;17.50;;;9.30;;
67372;SDS011;54257;54.496;18.412;2022-12-18T15:18:11;20.50;;;9.10;;
67372;SDS011;54257;54.496;18.412;2022-12-18T15:20:56;21.80;;;10.20;;
67372;SDS011;54257;54.496;18.412;2022-12-18T15:23:35;18.40;;;9.70;;
67372;SDS011;54257;54.496;18.412;2022-12-18T15:26:13;19.80;;;10.60;;
67372;SDS011;54257;54.496;18.412;2022-12-18T15:28:55;17.80;;;10.00;;
67372;SDS011;54257;54.496;18.412;2022-12-18T15:36:23;18.90;;;10.40;;
67372;SDS011;54257;54.496;18.412;2022-12-18T15:38:54;19.40;;;10.60;;
67372;SDS011;54257;54.496;18.412;2022-12-18T15:41:22;22.10;;;11.50;;
67372;SDS011;54257;54.496;18.412;2022-12-18T15:43:49;22.60;;;11.50;;
67372;SDS011;54257;54.496;18.412;2022-12-18T15:46:23;23.60;;;11.10;;
67372;SDS011;54257;54.496;18.412;2022-12-18T15:48:52;22.40;;;11.60;;
67372;SDS011;54257;54.496;18.412;2022-12-18T15:51:24;21.60;;;10.50;;
67372;SDS011;54257;54.496;18.412;2022-12-18T15:53:55;20.40;;;12.10;;
67372;SDS011;54257;54.496;18.412;2022-12-18T15:56:26;19.30;;;10.70;;
67372;SDS011;54257;54.496;18.412;2022-12-18T15:59:13;25.30;;;12.40;;
67372;SDS011;54257;54.496;18.412;2022-12-18T16:01:43;23.10;;;11.80;;
67372;SDS011;54257;54.496;18.412;2022-12-18T16:04:14;18.50;;;11.40;;
67372;SDS011;54257;54.496;18.412;2022-12-18T16:06:43;26.00;;;12.40;;
67372;SDS011;54257;54.496;18.412;2022-12-18T16:09:10;23.80;;;12.00;;
67372;SDS011;54257;54.496;18.412;2022-12-18T16:11:39;21.70;;;11.20;;
67372;SDS011;54257;54.496;18.412;2022-12-18T16:14:28;22.30;;;11.10;;
67372;SDS011;54257;54.496;18.412;2022-12-18T16:16:58;24.20;;;12.40;;
67372;SDS011;54257;54.496;18.412;2022-12-18T16:19:27;23.70;;;11.40;;
67372;SDS011;54257;54.496;18.412;2022-12-18T16:21:55;20.90;;;10.40;;
67372;SDS011;54257;54.496;18.412;2022-12-18T16:24:25;20.60;;;10.30;;
67372;SDS011;54257;54.496;18.412;2022-12-18T16:26:55;21.90;;;10.70;;
67372;SDS011;54257;54.496;18.412;2022-12-18T16:29:27;20.80;;;11.50;;
67372;SDS011;54257;54.496;18.412;2022-12-18T16:31:55;22.80;;;11.80;;
67372;SDS011;54257;54.496;18.412;2022-12-18T16:34:33;23.00;;;11.10;;
67372;SDS011;54257;54.496;18.412;2022-12-18T16:37:02;24.30;;;12.00;;
67372;SDS011;54257;54.496;18.412;2022-12-18T16:39:32;24.00;;;12.20;;
67372;SDS011;54257;54.496;18.412;2022-12-18T16:42:01;23.10;;;11.50;;
67372;SDS011;54257;54.496;18.412;2022-12-18T16:44:29;26.20;;;11.30;;
67372;SDS011;54257;54.496;18.412;2022-12-18T16:46:56;21.30;;;11.20;;
67372;SDS011;54257;54.496;18.412;2022-12-18T16:49:28;23.50;;;12.70;;
67372;SDS011;54257;54.496;18.412;2022-12-18T16:51:55;28.00;;;14.30;;
67372;SDS011;54257;54.496;18.412;2022-12-18T16:54:23;25.80;;;13.20;;
67372;SDS011;54257;54.496;18.412;2022-12-18T16:56:50;30.10;;;14.50;;
67372;SDS011;54257;54.496;18.412;2022-12-18T16:59:18;27.40;;;15.40;;
67372;SDS011;54257;54.496;18.412;2022-12-18T17:01:45;24.40;;;12.90;;
67372;SDS011;54257;54.496;18.412;2022-12-18T17:04:13;26.60;;;13.30;;
67372;SDS011;54257;54.496;18.412;2022-12-18T17:06:42;25.50;;;13.70;;
67372;SDS011;54257;54.496;18.412;2022-12-18T17:09:11;27.60;;;13.60;;